createdAt,value
2022-11-05T00:00:10.033Z,54.20
2022-11-05T00:01:10.009Z,53.90
2022-11-05T00:02:10.013Z,48.60
2022-11-05T00:03:10.268Z,56.20
2022-11-05T00:04:10.095Z,56.70
2022-11-05T00:05:09.986Z,53.10
2022-11-05T00:06:09.984Z,49.70
2022-11-05T00:07:09.942Z,51.90
2022-11-05T00:08:09.959Z,51.60
2022-11-05T00:09:09.922Z,54.50
2022-11-05T00:10:09.931Z,54.60
2022-11-05T00:11:13.866Z,54.40
2022-11-05T00:12:09.913Z,53.80
2022-11-05T00:13:10.242Z,52.80
2022-11-05T00:14:09.884Z,56.10
2022-11-05T00:15:09.874Z,56.50
2022-11-05T00:16:09.859Z,52.80
2022-11-05T00:17:09.867Z,49.50
2022-11-05T00:18:09.848Z,55.30
2022-11-05T00:19:09.815Z,55.90
2022-11-05T00:20:09.819Z,61.50
2022-11-05T00:21:09.813Z,59.90
2022-11-05T00:22:09.796Z,59.20
2022-11-05T00:23:10.141Z,60.80
2022-11-05T00:24:09.797Z,57.50
2022-11-05T00:25:09.752Z,68.30
2022-11-05T00:26:09.755Z,61.70
2022-11-05T00:27:09.739Z,61.30
2022-11-05T00:28:09.739Z,55.00
2022-11-05T00:29:09.753Z,60.70
2022-11-05T00:30:09.717Z,61.90
2022-11-05T00:31:09.705Z,66.00
2022-11-05T00:32:09.698Z,58.90
2022-11-05T00:33:09.953Z,65.10
2022-11-05T00:34:09.669Z,67.50
2022-11-05T00:35:09.691Z,65.90
2022-11-05T00:36:09.657Z,67.10
2022-11-05T00:37:09.628Z,57.40
2022-11-05T00:38:09.642Z,73.40
2022-11-05T00:39:09.614Z,64.10
2022-11-05T00:40:09.614Z,65.60
2022-11-05T00:41:09.621Z,75.20
2022-11-05T00:42:09.598Z,73.90
2022-11-05T00:43:09.921Z,68.40
2022-11-05T00:44:09.569Z,66.90
2022-11-05T00:45:09.555Z,64.00
2022-11-05T00:46:09.543Z,64.00
2022-11-05T00:47:09.559Z,70.80
2022-11-05T00:48:09.527Z,71.10
2022-11-05T00:49:09.516Z,69.20
2022-11-05T00:50:09.503Z,70.40
2022-11-05T00:51:09.479Z,75.00
2022-11-05T00:52:09.502Z,75.30
2022-11-05T00:53:09.960Z,78.70
2022-11-05T00:54:09.460Z,75.50
2022-11-05T00:55:09.448Z,75.70
2022-11-05T00:56:09.438Z,74.00
2022-11-05T00:57:09.414Z,70.40
2022-11-05T00:58:09.432Z,75.50
2022-11-05T00:59:09.418Z,85.90
2022-11-05T01:00:09.396Z,80.40
2022-11-05T01:01:09.483Z,90.80
2022-11-05T01:02:09.529Z,77.80
2022-11-05T01:03:09.797Z,68.20
2022-11-05T01:04:09.392Z,71.10
2022-11-05T01:05:09.367Z,69.30
2022-11-05T01:06:09.337Z,77.20
2022-11-05T01:07:09.314Z,80.00
2022-11-05T01:08:09.319Z,83.10
2022-11-05T01:09:09.283Z,81.90
2022-11-05T01:10:09.294Z,83.00
2022-11-05T01:11:09.348Z,83.10
2022-11-05T01:12:09.267Z,80.60
2022-11-05T01:13:12.868Z,78.70
2022-11-05T01:14:09.253Z,73.40
2022-11-05T01:15:09.227Z,75.10
2022-11-05T01:16:09.229Z,73.30
2022-11-05T01:17:09.245Z,85.30
2022-11-05T01:18:09.207Z,77.20
2022-11-05T01:19:09.188Z,79.40
2022-11-05T01:20:09.191Z,89.10
2022-11-05T01:21:09.161Z,85.30
2022-11-05T01:22:09.162Z,84.30
2022-11-05T01:23:13.565Z,86.70
2022-11-05T01:24:09.145Z,94.10
2022-11-05T01:25:09.122Z,100.70
2022-11-05T01:26:09.131Z,82.40
2022-11-05T01:27:09.107Z,85.80
2022-11-05T01:28:09.132Z,94.20
2022-11-05T01:29:09.209Z,94.00
2022-11-05T01:30:09.267Z,87.60
2022-11-05T01:31:09.058Z,89.70
2022-11-05T01:32:09.067Z,68.90
2022-11-05T01:33:09.392Z,83.10
2022-11-05T01:34:09.042Z,85.50
2022-11-05T01:35:09.058Z,91.00
2022-11-05T01:36:09.032Z,92.80
2022-11-05T01:37:08.998Z,90.80
2022-11-05T01:38:08.996Z,83.50
2022-11-05T01:39:08.980Z,92.20
2022-11-05T01:40:08.978Z,99.10
2022-11-05T01:41:08.989Z,96.00
2022-11-05T01:42:08.962Z,77.30
2022-11-05T01:43:09.274Z,83.60
2022-11-05T01:44:08.964Z,85.30
2022-11-05T01:45:08.907Z,80.70
2022-11-05T01:46:08.915Z,78.30
2022-11-05T01:47:08.923Z,70.40
2022-11-05T01:48:08.891Z,75.70
2022-11-05T01:49:08.864Z,73.20
2022-11-05T01:50:08.891Z,79.30
2022-11-05T01:51:08.866Z,78.50
2022-11-05T01:52:08.849Z,83.80
2022-11-05T01:53:09.392Z,93.00
2022-11-05T01:54:08.830Z,83.70
2022-11-05T01:55:08.810Z,77.20
2022-11-05T01:56:08.805Z,74.50
2022-11-05T01:57:08.784Z,78.30
2022-11-05T01:58:08.785Z,81.50
2022-11-05T01:59:08.875Z,67.00
2022-11-05T02:00:08.768Z,75.20
2022-11-05T02:01:08.739Z,82.40
2022-11-05T02:02:08.875Z,89.80
2022-11-05T02:03:09.070Z,89.50
2022-11-05T02:04:08.722Z,81.00
2022-11-05T02:05:08.720Z,72.20
2022-11-05T02:06:08.730Z,80.60
2022-11-05T02:07:08.676Z,79.70
2022-11-05T02:08:08.682Z,80.60
2022-11-05T02:09:08.664Z,77.10
2022-11-05T02:10:08.662Z,72.70
2022-11-05T02:11:08.659Z,79.00
2022-11-05T02:12:08.646Z,66.60
2022-11-05T02:13:08.923Z,72.00
2022-11-05T02:14:08.615Z,86.40
2022-11-05T02:15:08.609Z,82.20
2022-11-05T02:16:08.597Z,72.00
2022-11-05T02:17:08.609Z,72.20
2022-11-05T02:18:08.584Z,76.50
2022-11-05T02:19:08.553Z,72.20
2022-11-05T02:20:08.561Z,66.00
2022-11-05T02:21:08.555Z,72.80
2022-11-05T02:22:08.535Z,66.40
2022-11-05T02:23:08.922Z,67.20
2022-11-05T02:24:08.528Z,69.00
2022-11-05T02:25:08.493Z,71.50
2022-11-05T02:26:08.491Z,68.20
2022-11-05T02:27:08.485Z,68.40
2022-11-05T02:28:08.477Z,69.10
2022-11-05T02:29:08.479Z,69.60
2022-11-05T02:30:08.479Z,72.80
2022-11-05T02:31:08.425Z,66.60
2022-11-05T02:32:08.428Z,67.00
2022-11-05T02:33:08.794Z,68.80
2022-11-05T02:34:08.411Z,72.10
2022-11-05T02:35:08.418Z,78.80
2022-11-05T02:36:08.390Z,93.90
2022-11-05T02:37:08.380Z,75.70
2022-11-05T02:38:08.368Z,82.10
2022-11-05T02:39:08.374Z,71.60
2022-11-05T02:40:08.347Z,67.50
2022-11-05T02:41:08.353Z,72.10
2022-11-05T02:42:08.324Z,78.10
2022-11-05T02:43:08.569Z,80.30
2022-11-05T02:44:08.302Z,76.70
2022-11-05T02:45:08.284Z,78.10
2022-11-05T02:46:08.326Z,77.10
2022-11-05T02:47:08.256Z,84.50
2022-11-05T02:48:08.261Z,79.20
2022-11-05T02:49:08.272Z,80.40
2022-11-05T02:50:08.239Z,77.80
2022-11-05T02:51:08.214Z,87.70
2022-11-05T02:52:08.243Z,76.10
2022-11-05T02:53:08.509Z,79.60
2022-11-05T02:54:08.197Z,109.10
2022-11-05T02:55:08.194Z,103.30
2022-11-05T02:56:08.177Z,90.30
2022-11-05T02:57:08.175Z,83.90
2022-11-05T02:58:08.215Z,87.00
2022-11-05T02:59:08.129Z,79.80
2022-11-05T03:00:08.141Z,74.80
2022-11-05T03:01:08.128Z,70.00
2022-11-05T03:02:08.311Z,65.20
2022-11-05T03:03:08.301Z,60.70
2022-11-05T03:04:08.110Z,66.90
2022-11-05T03:05:08.068Z,66.30
2022-11-05T03:06:08.071Z,74.40
2022-11-05T03:07:08.097Z,65.60
2022-11-05T03:08:08.056Z,74.20
2022-11-05T03:09:08.032Z,77.10
2022-11-05T03:10:08.036Z,71.30
2022-11-05T03:11:08.017Z,67.70
2022-11-05T03:12:08.033Z,59.00
2022-11-05T03:13:08.170Z,60.20
2022-11-05T03:14:07.996Z,62.80
2022-11-05T03:15:07.969Z,55.30
2022-11-05T03:16:07.966Z,58.80
2022-11-05T03:17:07.941Z,63.40
2022-11-05T03:18:07.985Z,66.50
2022-11-05T03:19:07.924Z,64.50
2022-11-05T03:20:07.924Z,53.50
2022-11-05T03:21:07.905Z,54.10
2022-11-05T03:22:07.898Z,51.60
2022-11-05T03:23:08.236Z,50.80
2022-11-05T03:24:07.869Z,61.60
2022-11-05T03:25:07.892Z,61.90
2022-11-05T03:26:07.847Z,62.30
2022-11-05T03:27:07.851Z,50.80
2022-11-05T03:28:07.852Z,56.80
2022-11-05T03:29:07.851Z,54.70
2022-11-05T03:30:07.814Z,54.90
2022-11-05T03:31:07.866Z,57.00
2022-11-05T03:32:07.787Z,58.60
2022-11-05T03:33:07.969Z,55.30
2022-11-05T03:34:07.785Z,53.40
2022-11-05T03:35:07.775Z,54.50
2022-11-05T03:36:07.749Z,58.60
2022-11-05T03:37:08.451Z,55.80
2022-11-05T03:38:08.590Z,56.70
2022-11-05T03:39:08.493Z,51.50
2022-11-05T03:40:07.704Z,52.40
2022-11-05T03:41:07.707Z,52.50
2022-11-05T03:42:07.686Z,53.90
2022-11-05T03:43:07.867Z,53.10
2022-11-05T03:44:07.704Z,54.10
2022-11-05T03:45:07.661Z,51.90
2022-11-05T03:46:07.642Z,49.60
2022-11-05T03:47:07.658Z,49.80
2022-11-05T03:48:07.690Z,53.70
2022-11-05T03:49:07.621Z,48.90
2022-11-05T03:50:07.634Z,54.60
2022-11-05T03:51:07.601Z,56.00
2022-11-05T03:52:07.580Z,56.20
2022-11-05T03:53:07.766Z,52.80
2022-11-05T03:54:07.557Z,50.70
2022-11-05T03:55:07.585Z,49.20
2022-11-05T03:56:07.553Z,55.50
2022-11-05T03:57:07.536Z,52.50
2022-11-05T03:58:07.520Z,54.50
2022-11-05T03:59:07.520Z,51.20
2022-11-05T04:00:07.504Z,51.20
2022-11-05T04:01:07.531Z,46.90
2022-11-05T04:02:07.645Z,46.80
2022-11-05T04:03:07.599Z,49.80
2022-11-05T04:04:07.449Z,45.70
2022-11-05T04:05:07.469Z,45.70
2022-11-05T04:06:07.462Z,42.50
2022-11-05T04:07:07.436Z,45.30
2022-11-05T04:08:12.913Z,49.30
2022-11-05T04:09:07.417Z,50.30
2022-11-05T04:10:07.385Z,54.40
2022-11-05T04:11:07.392Z,50.90
2022-11-05T04:12:07.384Z,54.10
2022-11-05T04:13:07.521Z,56.00
2022-11-05T04:14:07.367Z,53.90
2022-11-05T04:15:07.350Z,59.30
2022-11-05T04:16:07.322Z,62.90
2022-11-05T04:17:07.374Z,59.40
2022-11-05T04:18:07.302Z,60.30
2022-11-05T04:19:07.308Z,54.50
2022-11-05T04:20:07.309Z,54.20
2022-11-05T04:21:07.287Z,60.20
2022-11-05T04:22:07.260Z,61.60
2022-11-05T04:23:07.435Z,75.40
2022-11-05T04:24:07.242Z,70.50
2022-11-05T04:25:07.244Z,72.20
2022-11-05T04:26:07.254Z,67.50
2022-11-05T04:27:07.225Z,74.20
2022-11-05T04:28:07.217Z,70.60
2022-11-05T04:29:08.066Z,88.80
2022-11-05T04:30:07.183Z,101.90
2022-11-05T04:31:07.191Z,77.90
2022-11-05T04:32:07.161Z,72.60
2022-11-05T04:33:07.194Z,76.60
2022-11-05T04:34:07.133Z,83.00
2022-11-05T04:35:07.141Z,85.10
2022-11-05T04:36:07.130Z,75.10
2022-11-05T04:37:07.115Z,78.50
2022-11-05T04:38:07.143Z,74.50
2022-11-05T04:39:07.104Z,79.30
2022-11-05T04:40:07.073Z,69.80
2022-11-05T04:41:07.074Z,63.90
2022-11-05T04:42:07.058Z,63.70
2022-11-05T04:43:12.048Z,62.70
2022-11-05T04:44:07.056Z,55.50
2022-11-05T04:45:07.036Z,54.50
2022-11-05T04:46:07.013Z,59.80
2022-11-05T04:47:07.016Z,66.60
2022-11-05T04:48:07.026Z,71.70
2022-11-05T04:49:07.015Z,81.60
2022-11-05T04:50:06.975Z,73.80
2022-11-05T04:51:06.991Z,65.90
2022-11-05T04:52:06.949Z,71.90
2022-11-05T04:53:06.954Z,76.60
2022-11-05T04:54:06.926Z,75.70
2022-11-05T04:55:06.956Z,70.30
2022-11-05T04:56:06.905Z,76.00
2022-11-05T04:57:06.906Z,77.80
2022-11-05T04:58:06.885Z,85.70
2022-11-05T04:59:06.888Z,81.30
2022-11-05T05:00:06.883Z,85.70
2022-11-05T05:01:06.929Z,87.10
2022-11-05T05:02:06.868Z,82.20
2022-11-05T05:03:06.848Z,86.40
2022-11-05T05:04:06.824Z,72.90
2022-11-05T05:05:06.829Z,82.60
2022-11-05T05:06:06.824Z,62.20
2022-11-05T05:07:06.818Z,73.20
2022-11-05T05:08:06.798Z,77.30
2022-11-05T05:09:06.781Z,78.70
2022-11-05T05:10:06.759Z,65.20
2022-11-05T05:11:06.801Z,71.40
2022-11-05T05:12:06.736Z,77.60
2022-11-05T05:13:06.741Z,83.40
2022-11-05T05:14:06.735Z,73.20
2022-11-05T05:15:06.719Z,75.50
2022-11-05T05:16:06.903Z,78.40
2022-11-05T05:17:06.701Z,79.40
2022-11-05T05:18:06.688Z,90.70
2022-11-05T05:19:06.685Z,93.40
2022-11-05T05:20:06.659Z,83.20
2022-11-05T05:21:06.685Z,91.70
2022-11-05T05:22:06.655Z,92.70
2022-11-05T05:23:06.639Z,97.30
2022-11-05T05:24:06.615Z,75.70
2022-11-05T05:25:06.615Z,75.40
2022-11-05T05:26:06.590Z,80.20
2022-11-05T05:27:06.616Z,72.90
2022-11-05T05:28:06.576Z,79.80
2022-11-05T05:29:06.575Z,91.70
2022-11-05T05:30:06.555Z,89.00
2022-11-05T05:31:06.550Z,70.40
2022-11-05T05:32:06.538Z,80.20
2022-11-05T05:33:06.554Z,70.40
2022-11-05T05:34:06.512Z,81.30
2022-11-05T05:35:06.520Z,76.40
2022-11-05T05:36:11.050Z,66.90
2022-11-05T05:37:06.496Z,79.00
2022-11-05T05:38:06.512Z,65.60
2022-11-05T05:39:06.470Z,60.70
2022-11-05T05:40:06.449Z,81.00
2022-11-05T05:41:06.445Z,93.60
2022-11-05T05:42:06.437Z,72.00
2022-11-05T05:43:06.461Z,65.00
2022-11-05T05:44:06.411Z,64.60
2022-11-05T05:45:06.410Z,65.30
2022-11-05T05:46:06.380Z,69.20
2022-11-05T05:47:06.385Z,77.70
2022-11-05T05:48:06.367Z,54.30
2022-11-05T05:49:11.247Z,56.00
2022-11-05T05:50:06.353Z,62.10
2022-11-05T05:51:06.363Z,66.00
2022-11-05T05:52:06.323Z,66.60
2022-11-05T05:53:06.326Z,74.40
2022-11-05T05:54:06.324Z,76.20
2022-11-05T05:55:06.306Z,81.90
2022-11-05T05:56:06.280Z,82.50
2022-11-05T05:57:06.280Z,79.80
2022-11-05T05:58:06.261Z,82.40
2022-11-05T05:59:06.258Z,84.30
2022-11-05T06:00:06.259Z,87.80
2022-11-05T06:01:06.248Z,74.60
2022-11-05T06:02:06.327Z,95.30
2022-11-05T06:03:06.360Z,84.10
2022-11-05T06:04:06.221Z,89.40
2022-11-05T06:05:06.229Z,86.60
2022-11-05T06:06:06.181Z,79.80
2022-11-05T06:07:06.184Z,76.80
2022-11-05T06:08:06.155Z,68.20
2022-11-05T06:09:06.163Z,70.30
2022-11-05T06:10:06.130Z,66.70
2022-11-05T06:11:06.212Z,68.80
2022-11-05T06:12:06.108Z,74.90
2022-11-05T06:13:06.121Z,72.60
2022-11-05T06:14:06.088Z,81.50
2022-11-05T06:15:06.100Z,82.10
2022-11-05T06:16:06.106Z,77.80
2022-11-05T06:17:06.081Z,84.30
2022-11-05T06:18:06.053Z,80.50
2022-11-05T06:19:06.049Z,83.50
2022-11-05T06:20:06.038Z,78.60
2022-11-05T06:21:06.090Z,84.70
2022-11-05T06:22:06.148Z,86.50
2022-11-05T06:23:06.011Z,95.10
2022-11-05T06:24:05.983Z,95.80
2022-11-05T06:25:06.015Z,97.80
2022-11-05T06:26:05.975Z,92.90
2022-11-05T06:27:05.999Z,98.30
2022-11-05T06:28:05.950Z,98.70
2022-11-05T06:29:05.978Z,98.70
2022-11-05T06:30:05.925Z,107.00
2022-11-05T06:31:05.944Z,102.30
2022-11-05T06:32:05.924Z,94.50
2022-11-05T06:33:05.908Z,98.00
2022-11-05T06:34:05.879Z,103.30
2022-11-05T06:35:05.881Z,90.60
2022-11-05T06:36:05.860Z,95.00
2022-11-05T06:37:05.860Z,100.80
2022-11-05T06:38:05.862Z,104.80
2022-11-05T06:39:05.844Z,96.00
2022-11-05T06:40:05.821Z,92.70
2022-11-05T06:41:10.034Z,96.60
2022-11-05T06:42:18.434Z,93.20
2022-11-05T06:43:05.838Z,94.50
2022-11-05T06:44:05.794Z,97.40
2022-11-05T06:45:05.778Z,99.60
2022-11-05T06:46:05.757Z,91.70
2022-11-05T06:47:05.754Z,83.60
2022-11-05T06:48:05.730Z,79.50
2022-11-05T06:49:05.757Z,88.10
2022-11-05T06:50:05.711Z,82.90
2022-11-05T06:51:05.717Z,86.00
2022-11-05T06:52:05.688Z,68.50
2022-11-05T06:53:05.699Z,79.10
2022-11-05T06:54:05.694Z,86.80
2022-11-05T06:55:05.673Z,86.20
2022-11-05T06:56:05.656Z,80.50
2022-11-05T06:57:05.651Z,78.40
2022-11-05T06:58:05.628Z,75.50
2022-11-05T06:59:05.630Z,73.20
2022-11-05T07:00:07.976Z,81.30
2022-11-05T07:01:05.666Z,69.50
2022-11-05T07:02:05.645Z,65.70
2022-11-05T07:03:05.595Z,65.20
2022-11-05T07:04:05.563Z,70.60
2022-11-05T07:05:05.604Z,80.50
2022-11-05T07:06:05.546Z,83.20
2022-11-05T07:07:05.548Z,84.00
2022-11-05T07:08:05.524Z,85.30
2022-11-05T07:09:05.536Z,83.90
2022-11-05T07:10:05.503Z,84.20
2022-11-05T07:11:05.554Z,87.90
2022-11-05T07:12:05.482Z,95.40
2022-11-05T07:13:08.403Z,100.70
2022-11-05T07:14:05.462Z,83.10
2022-11-05T07:15:05.470Z,69.30
2022-11-05T07:16:05.475Z,82.90
2022-11-05T07:17:05.477Z,76.00
2022-11-05T07:18:05.420Z,76.10
2022-11-05T07:19:05.470Z,90.20
2022-11-05T07:20:05.400Z,84.70
2022-11-05T07:21:05.409Z,70.70
2022-11-05T07:22:05.398Z,82.10
2022-11-05T07:23:05.383Z,76.20
2022-11-05T07:24:05.358Z,78.80
2022-11-05T07:25:05.369Z,79.10
2022-11-05T07:26:05.342Z,73.70
2022-11-05T07:27:05.374Z,71.30
2022-11-05T07:28:05.314Z,68.20
2022-11-05T07:29:05.323Z,69.70
2022-11-05T07:30:05.299Z,63.20
2022-11-05T07:31:05.309Z,68.50
2022-11-05T07:32:05.276Z,59.90
2022-11-05T07:33:05.361Z,56.60
2022-11-05T07:34:05.255Z,63.60
2022-11-05T07:35:05.259Z,55.60
2022-11-05T07:36:05.233Z,53.80
2022-11-05T07:37:05.238Z,55.20
2022-11-05T07:38:05.252Z,56.00
2022-11-05T07:39:05.201Z,51.60
2022-11-05T07:40:05.208Z,58.90
2022-11-05T07:41:05.181Z,51.60
2022-11-05T07:42:05.187Z,52.40
2022-11-05T07:43:05.165Z,49.30
2022-11-05T07:44:05.188Z,53.10
2022-11-05T07:45:05.155Z,51.30
2022-11-05T07:46:08.603Z,51.80
2022-11-05T07:47:05.134Z,49.40
2022-11-05T07:48:05.123Z,49.10
2022-11-05T07:49:05.122Z,49.60
2022-11-05T07:50:05.108Z,51.20
2022-11-05T07:51:05.085Z,50.00
2022-11-05T07:52:05.083Z,47.70
2022-11-05T07:53:05.056Z,47.60
2022-11-05T07:54:05.059Z,42.30
2022-11-05T07:55:05.054Z,47.20
2022-11-05T07:56:05.039Z,43.60
2022-11-05T07:57:05.016Z,44.20
2022-11-05T07:58:05.022Z,43.30
2022-11-05T07:59:04.988Z,44.80
2022-11-05T08:00:05.029Z,43.50
2022-11-05T08:01:05.094Z,42.30
2022-11-05T08:02:05.199Z,46.60
2022-11-05T08:03:08.241Z,43.70
2022-11-05T08:04:04.952Z,45.40
2022-11-05T08:05:04.927Z,43.00
2022-11-05T08:06:04.953Z,44.70
2022-11-05T08:07:04.905Z,43.60
2022-11-05T08:08:04.913Z,42.90
2022-11-05T08:09:04.884Z,47.20
2022-11-05T08:10:04.892Z,45.10
2022-11-05T08:11:04.887Z,38.70
2022-11-05T08:12:04.868Z,44.00
2022-11-05T08:13:04.857Z,41.20
2022-11-05T08:14:04.848Z,41.30
2022-11-05T08:15:04.823Z,40.70
2022-11-05T08:16:04.848Z,38.60
2022-11-05T08:17:04.801Z,39.40
2022-11-05T08:18:04.813Z,34.20
2022-11-05T08:19:04.780Z,35.30
2022-11-05T08:20:04.783Z,37.20
2022-11-05T08:21:04.758Z,37.70
2022-11-05T08:22:04.782Z,39.50
2022-11-05T08:23:04.737Z,37.80
2022-11-05T08:24:04.746Z,36.00
2022-11-05T08:25:06.940Z,36.50
2022-11-05T08:26:04.719Z,38.30
2022-11-05T08:27:04.722Z,36.20
2022-11-05T08:28:04.703Z,37.00
2022-11-05T08:29:04.682Z,38.50
2022-11-05T08:30:04.677Z,34.20
2022-11-05T08:31:04.656Z,35.40
2022-11-05T08:32:04.655Z,34.70
2022-11-05T08:33:04.654Z,36.10
2022-11-05T08:34:04.636Z,34.80
2022-11-05T08:35:04.615Z,35.30
2022-11-05T08:36:04.618Z,36.00
2022-11-05T08:37:04.591Z,37.30
2022-11-05T08:38:04.631Z,36.50
2022-11-05T08:39:04.572Z,36.10
2022-11-05T08:40:04.577Z,34.20
2022-11-05T08:41:04.552Z,34.60
2022-11-05T08:42:04.555Z,35.90
2022-11-05T08:43:04.524Z,32.60
2022-11-05T08:44:04.552Z,30.10
2022-11-05T08:45:04.504Z,32.70
2022-11-05T08:46:04.511Z,31.20
2022-11-05T08:47:04.497Z,30.70
2022-11-05T08:48:04.493Z,32.90
2022-11-05T08:49:04.484Z,30.30
2022-11-05T08:50:04.466Z,30.50
2022-11-05T08:51:04.442Z,30.50
2022-11-05T08:52:04.442Z,29.50
2022-11-05T08:53:04.420Z,29.20
2022-11-05T08:54:04.457Z,27.90
2022-11-05T08:55:04.398Z,31.10
2022-11-05T08:56:04.409Z,32.00
2022-11-05T08:57:04.378Z,29.30
2022-11-05T08:58:04.383Z,30.70
2022-11-05T08:59:04.359Z,31.00
2022-11-05T09:00:04.380Z,27.60
2022-11-05T09:01:05.454Z,30.40
2022-11-05T09:02:04.502Z,30.60
2022-11-05T09:03:04.320Z,29.60
2022-11-05T09:04:04.322Z,30.20
2022-11-05T09:05:04.318Z,28.00
2022-11-05T09:06:04.303Z,28.60
2022-11-05T09:07:04.281Z,27.90
2022-11-05T09:08:04.274Z,29.10
2022-11-05T09:09:04.257Z,29.90
2022-11-05T09:10:04.255Z,31.50
2022-11-05T09:11:04.257Z,27.10
2022-11-05T09:12:12.905Z,29.60
2022-11-05T09:13:04.220Z,29.70
2022-11-05T09:14:04.215Z,29.00
2022-11-05T09:15:04.185Z,28.10
2022-11-05T09:16:04.429Z,29.20
2022-11-05T09:17:04.167Z,26.90
2022-11-05T09:18:04.168Z,28.00
2022-11-05T09:19:04.145Z,26.60
2022-11-05T09:20:04.148Z,25.70
2022-11-05T09:21:04.159Z,25.30
2022-11-05T09:22:04.137Z,25.90
2022-11-05T09:23:04.101Z,26.30
2022-11-05T09:24:04.108Z,25.20
2022-11-05T09:25:04.080Z,25.60
2022-11-05T09:26:04.102Z,26.90
2022-11-05T09:27:04.082Z,25.20
2022-11-05T09:28:04.062Z,21.40
2022-11-05T09:29:04.040Z,23.90
2022-11-05T09:30:04.043Z,22.90
2022-11-05T09:31:04.023Z,22.60
2022-11-05T09:32:04.059Z,21.60
2022-11-05T09:33:03.998Z,24.40
2022-11-05T09:34:04.000Z,21.60
2022-11-05T09:35:03.973Z,23.70
2022-11-05T09:36:03.980Z,21.80
2022-11-05T09:37:03.952Z,23.80
2022-11-05T09:38:03.978Z,24.20
2022-11-05T09:39:03.931Z,22.00
2022-11-05T09:40:03.941Z,23.00
2022-11-05T09:41:03.913Z,22.10
2022-11-05T09:42:03.917Z,21.70
2022-11-05T09:43:03.924Z,21.30
2022-11-05T09:44:03.900Z,22.90
2022-11-05T09:45:03.871Z,22.20
2022-11-05T09:46:03.871Z,20.40
2022-11-05T09:47:03.861Z,22.20
2022-11-05T09:48:03.854Z,21.60
2022-11-05T09:49:03.848Z,22.70
2022-11-05T09:50:03.841Z,21.30
2022-11-05T09:51:03.803Z,18.90
2022-11-05T09:52:03.811Z,21.00
2022-11-05T09:53:03.782Z,22.30
2022-11-05T09:54:03.807Z,20.90
2022-11-05T09:55:03.788Z,22.40
2022-11-05T09:56:03.768Z,22.60
2022-11-05T09:57:03.739Z,19.80
2022-11-05T09:58:03.752Z,21.20
2022-11-05T09:59:03.752Z,22.40
2022-11-05T10:00:03.721Z,22.30
2022-11-05T10:01:03.776Z,22.70
2022-11-05T10:02:03.870Z,21.10
2022-11-05T10:03:03.674Z,21.60
2022-11-05T10:04:03.687Z,19.50
2022-11-05T10:05:09.433Z,21.20
2022-11-05T10:06:03.661Z,20.90
2022-11-05T10:07:03.631Z,20.60
2022-11-05T10:08:03.640Z,19.60
2022-11-05T10:09:03.615Z,19.40
2022-11-05T10:10:03.614Z,19.10
2022-11-05T10:11:03.620Z,20.40
2022-11-05T10:12:03.596Z,21.30
2022-11-05T10:13:03.575Z,18.30
2022-11-05T10:14:03.572Z,20.50
2022-11-05T10:15:03.551Z,19.10
2022-11-05T10:16:03.566Z,22.50
2022-11-05T10:17:03.579Z,18.00
2022-11-05T10:18:03.528Z,18.30
2022-11-05T10:19:03.518Z,18.00
2022-11-05T10:20:03.506Z,17.90
2022-11-05T10:21:03.538Z,19.70
2022-11-05T10:22:07.354Z,19.60
2022-11-05T10:23:03.468Z,18.30
2022-11-05T10:24:03.469Z,20.60
2022-11-05T10:25:03.442Z,20.80
2022-11-05T10:26:03.449Z,18.70
2022-11-05T10:27:03.615Z,18.20
2022-11-05T10:28:03.425Z,20.20
2022-11-05T10:29:03.403Z,18.20
2022-11-05T10:30:03.402Z,19.30
2022-11-05T10:31:03.377Z,17.30
2022-11-05T10:32:03.384Z,18.20
2022-11-05T10:33:03.535Z,17.70
2022-11-05T10:34:03.360Z,17.40
2022-11-05T10:35:03.333Z,20.10
2022-11-05T10:36:03.337Z,17.10
2022-11-05T10:37:03.314Z,17.60
2022-11-05T10:38:03.320Z,16.40
2022-11-05T10:39:03.330Z,17.50
2022-11-05T10:40:03.299Z,17.60
2022-11-05T10:41:03.275Z,17.70
2022-11-05T10:42:03.279Z,17.50
2022-11-05T10:43:03.250Z,15.40
2022-11-05T10:44:03.251Z,18.60
2022-11-05T10:45:03.280Z,16.90
2022-11-05T10:46:03.232Z,18.40
2022-11-05T10:47:03.227Z,16.40
2022-11-05T10:48:03.214Z,16.80
2022-11-05T10:49:03.185Z,15.90
2022-11-05T10:50:03.192Z,15.50
2022-11-05T10:51:03.197Z,14.20
2022-11-05T10:52:03.164Z,14.30
2022-11-05T10:53:03.146Z,15.40
2022-11-05T10:54:03.142Z,15.80
2022-11-05T10:55:03.134Z,15.90
2022-11-05T10:56:03.127Z,16.50
2022-11-05T10:57:03.132Z,14.90
2022-11-05T10:58:03.107Z,15.40
2022-11-05T10:59:06.731Z,16.00
2022-11-05T11:00:03.824Z,15.40
2022-11-05T11:01:03.153Z,14.80
2022-11-05T11:02:03.272Z,15.30
2022-11-05T11:03:03.070Z,16.40
2022-11-05T11:04:03.045Z,16.60
2022-11-05T11:05:03.278Z,16.00
2022-11-05T11:06:03.018Z,15.60
2022-11-05T11:07:02.991Z,14.40
2022-11-05T11:08:02.993Z,17.00
2022-11-05T11:09:03.004Z,15.50
2022-11-05T11:10:02.979Z,15.70
2022-11-05T11:11:02.946Z,14.40
2022-11-05T11:12:02.957Z,15.50
2022-11-05T11:13:02.937Z,15.80
2022-11-05T11:14:02.957Z,13.90
2022-11-05T11:15:02.921Z,15.90
2022-11-05T11:16:02.917Z,14.60
2022-11-05T11:17:02.884Z,14.60
2022-11-05T11:18:02.891Z,13.70
2022-11-05T11:19:02.864Z,13.20
2022-11-05T11:20:02.898Z,14.60
2022-11-05T11:21:02.843Z,13.80
2022-11-05T11:22:02.843Z,14.60
2022-11-05T11:23:02.817Z,15.00
2022-11-05T11:24:02.826Z,14.40
2022-11-05T11:25:02.800Z,15.80
2022-11-05T11:26:02.826Z,18.30
2022-11-05T11:27:02.781Z,14.20
2022-11-05T11:28:02.780Z,14.40
2022-11-05T11:29:02.765Z,15.50
2022-11-05T11:30:02.783Z,13.90
2022-11-05T11:31:02.764Z,14.50
2022-11-05T11:32:02.776Z,16.00
2022-11-05T11:33:02.712Z,14.70
2022-11-05T11:34:02.718Z,13.80
2022-11-05T11:35:02.736Z,15.80
2022-11-05T11:36:02.728Z,14.60
2022-11-05T11:37:02.728Z,13.30
2022-11-05T11:38:02.755Z,15.30
2022-11-05T11:39:02.651Z,16.40
2022-11-05T11:40:02.660Z,14.00
2022-11-05T11:41:02.634Z,15.40
2022-11-05T11:42:02.629Z,14.30
2022-11-05T11:43:02.620Z,14.90
2022-11-05T11:44:02.645Z,15.00
2022-11-05T11:45:02.585Z,13.90
2022-11-05T11:46:06.930Z,14.80
2022-11-05T11:47:02.561Z,14.40
2022-11-05T11:48:02.579Z,15.50
2022-11-05T11:49:02.568Z,13.40
2022-11-05T11:50:02.561Z,16.70
2022-11-05T11:51:02.521Z,13.80
2022-11-05T11:52:02.509Z,14.50
2022-11-05T11:53:02.506Z,15.30
2022-11-05T11:54:02.483Z,14.50
2022-11-05T11:55:02.512Z,15.00
2022-11-05T11:56:02.463Z,13.30
2022-11-05T11:57:02.478Z,14.80
2022-11-05T11:58:02.438Z,15.20
2022-11-05T11:59:02.463Z,14.90
2022-11-05T12:00:08.947Z,16.30
2022-11-05T12:01:02.501Z,15.20
2022-11-05T12:02:02.616Z,15.50
2022-11-05T12:03:02.552Z,14.70
2022-11-05T12:04:02.378Z,12.80
2022-11-05T12:05:02.378Z,13.90
2022-11-05T12:06:02.365Z,13.20
2022-11-05T12:07:02.384Z,14.10
2022-11-05T12:08:02.357Z,15.30
2022-11-05T12:09:06.699Z,15.30
2022-11-05T12:10:02.313Z,14.50
2022-11-05T12:11:02.316Z,13.20
2022-11-05T12:12:02.287Z,16.50
2022-11-05T12:13:02.331Z,14.50
2022-11-05T12:14:02.271Z,12.90
2022-11-05T12:15:02.310Z,14.00
2022-11-05T12:16:02.251Z,13.90
2022-11-05T12:17:02.253Z,13.30
2022-11-05T12:18:02.235Z,11.40
2022-11-05T12:19:02.274Z,14.10
2022-11-05T12:20:02.251Z,14.70
2022-11-05T12:21:02.206Z,15.20
2022-11-05T12:22:02.187Z,12.50
2022-11-05T12:23:02.183Z,12.80
2022-11-05T12:24:02.163Z,14.20
2022-11-05T12:25:02.191Z,12.80
2022-11-05T12:26:02.137Z,13.20
2022-11-05T12:27:02.139Z,14.60
2022-11-05T12:28:02.114Z,15.10
2022-11-05T12:29:18.409Z,13.80
2022-11-05T12:30:02.102Z,13.60
2022-11-05T12:31:02.131Z,12.50
2022-11-05T12:32:02.072Z,13.60
2022-11-05T12:33:02.122Z,13.70
2022-11-05T12:34:02.052Z,16.10
2022-11-05T12:35:02.058Z,14.30
2022-11-05T12:36:02.031Z,14.20
2022-11-05T12:37:02.060Z,11.80
2022-11-05T12:38:02.012Z,12.60
2022-11-05T12:39:02.011Z,13.20
2022-11-05T12:40:01.993Z,13.40
2022-11-05T12:41:01.990Z,13.80
2022-11-05T12:42:01.994Z,12.70
2022-11-05T12:43:02.889Z,13.40
2022-11-05T12:44:01.952Z,14.30
2022-11-05T12:45:01.970Z,13.10
2022-11-05T12:46:01.933Z,13.50
2022-11-05T12:47:01.929Z,14.50
2022-11-05T12:48:01.957Z,12.40
2022-11-05T12:49:01.907Z,11.60
2022-11-05T12:50:01.880Z,11.20
2022-11-05T12:51:01.885Z,13.80
2022-11-05T12:52:01.857Z,12.20